Time;durP1;ratioP1;P1;durP2;ratioP2;P2;SDS_P1;SDS_P2;PMS_P1;PMS_P2;Temp;Humidity;BMP_temperature;BMP_pressure;BME280_temperature;BME280_humidity;BME280_pressure;Samples;Min_cycle;Max_cycle;Signal;HPM_P1;HPM_P2
2022/06/19 00:02:10;;;;;;;;;;;;;;;23.26;46.36;101323.22;7287057;19;152469;-56
2022/06/19 00:04:37;;;;;;;;;;;;;;;23.24;46.48;101317.88;7280198;19;153152;-57
2022/06/19 00:07:04;;;;;;;;;;;;;;;23.26;46.54;101315.56;7283546;19;154403;-57
2022/06/19 00:09:31;;;;;;;;;;;;;;;23.28;46.54;101320.91;7283630;19;151878;-58
2022/06/19 00:11:58;;;;;;;;;;;;;;;23.26;46.81;101312.75;7283316;19;153336;-57
2022/06/19 00:14:25;;;;;;;;;;;;;;;23.27;46.77;101297.50;7285133;19;154311;-57
2022/06/19 00:16:52;;;;;;;;;;;;;;;23.26;47.09;101284.56;7292384;19;152447;-58
2022/06/19 00:19:19;;;;;;;;;;;;;;;23.28;47.15;101265.34;7282178;19;154112;-57
2022/06/19 00:21:47;;;;;;;;;;;;;;;23.29;47.21;101260.53;7284295;19;151655;-58
2022/06/19 00:24:14;;;;;;;;;;;;;;;23.30;47.10;101248.94;7283686;19;152070;-58
2022/06/19 00:26:42;;;;;;;;;;;;;;;23.30;47.42;101253.75;7282219;19;154039;-58
2022/06/19 00:29:09;;;;;;;;;;;;;;;23.31;47.26;101256.22;7284636;19;153296;-57
2022/06/19 00:31:37;;;;;;;;;;;;;;;23.33;47.18;101264.38;7285137;19;152973;-58
2022/06/19 00:34:05;;;;;;;;;;;;;;;23.33;47.71;101284.97;7283572;19;154053;-58
2022/06/19 00:36:32;;;;;;;;;;;;;;;23.35;47.58;101302.38;7282224;19;151976;-58
2022/06/19 00:38:59;;;;;;;;;;;;;;;23.35;47.36;101304.34;7290460;19;154376;-56
2022/06/19 00:41:31;;;;;;;;;;;;;;;23.36;47.32;101303.22;7282413;19;151716;-56
2022/06/19 00:44:00;;;;;;;;;;;;;;;23.38;47.60;101295.28;7283175;19;153573;-58
2022/06/19 00:46:30;;;;;;;;;;;;;;;23.40;47.31;101304.25;7283354;19;155174;-57
2022/06/19 00:48:57;;;;;;;;;;;;;;;23.39;47.41;101306.22;7286454;19;151881;-55
2022/06/19 00:51:24;;;;;;;;;;;;;;;23.42;47.68;101299.13;7284829;19;152616;-57
2022/06/19 00:53:51;;;;;;;;;;;;;;;23.43;47.57;101292.34;7281238;19;154032;-57
2022/06/19 00:56:19;;;;;;;;;;;;;;;23.43;47.52;101290.34;7284465;19;151959;-57
2022/06/19 00:58:48;;;;;;;;;;;;;;;23.45;47.70;101270.31;7283645;19;152717;-56
2022/06/19 01:01:18;;;;;;;;;;;;;;;23.45;47.83;101259.03;7290347;19;153692;-58
2022/06/19 01:03:48;;;;;;;;;;;;;;;23.46;47.73;101255.91;7285490;19;153763;-58
2022/06/19 01:06:15;;;;;;;;;;;;;;;23.48;47.93;101264.84;7282873;19;153276;-56
2022/06/19 01:08:42;;;;;;;;;;;;;;;23.48;47.52;101276.13;7282272;19;152568;-58
2022/06/19 01:11:10;;;;;;;;;;;;;;;23.51;47.93;101277.50;7284615;19;153446;-56
2022/06/19 01:13:38;;;;;;;;;;;;;;;23.52;47.40;101279.16;7282655;19;153850;-57
2022/06/19 01:16:05;;;;;;;;;;;;;;;23.56;47.73;101273.72;7284954;19;151868;-56
2022/06/19 01:18:33;;;;;;;;;;;;;;;23.57;47.58;101264.09;7280794;19;154781;-56
2022/06/19 01:21:06;;;;;;;;;;;;;;;23.58;47.86;101263.75;7283154;19;152525;-58
2022/06/19 01:23:33;;;;;;;;;;;;;;;23.59;47.89;101256.13;7290430;19;153295;-57
2022/06/19 01:26:00;;;;;;;;;;;;;;;23.61;47.44;101254.66;7281449;19;153992;-58
2022/06/19 01:31:00;;;;;;;;;;;;;;;23.63;47.61;101237.41;7282829;19;152582;-56
2022/06/19 01:33:30;;;;;;;;;;;;;;;23.61;47.86;101228.44;7278791;19;154372;-57
2022/06/19 01:35:59;;;;;;;;;;;;;;;23.66;47.80;101209.41;7284406;19;151801;-58
2022/06/19 01:38:26;;;;;;;;;;;;;;;23.71;47.59;101211.25;7280445;19;153378;-57
2022/06/19 01:40:55;;;;;;;;;;;;;;;23.75;47.69;101172.75;7281828;19;153841;-57
2022/06/19 01:43:22;;;;;;;;;;;;;;;23.78;47.23;101163.63;7282170;19;154003;-57
2022/06/19 01:45:52;;;;;;;;;;;;;;;23.75;47.60;101178.41;7288141;19;153523;-56
2022/06/19 01:48:23;;;;;;;;;;;;;;;23.70;47.44;101199.13;7280564;19;152113;-56
2022/06/19 01:50:50;;;;;;;;;;;;;;;23.70;47.76;101201.13;7280252;19;153329;-58
2022/06/19 01:53:21;;;;;;;;;;;;;;;23.73;48.08;101206.94;7290217;19;154265;-56
2022/06/19 01:55:49;;;;;;;;;;;;;;;23.73;47.73;101225.84;7290968;19;152272;-57
2022/06/19 01:58:17;;;;;;;;;;;;;;;23.74;47.86;101225.53;7289214;19;153513;-58
2022/06/19 02:00:45;;;;;;;;;;;;;;;23.74;47.57;101238.81;7286481;19;153652;-57
2022/06/19 02:03:17;;;;;;;;;;;;;;;23.72;47.85;101253.22;7289233;19;151592;-59
2022/06/19 02:05:44;;;;;;;;;;;;;;;23.81;47.49;101240.00;7289025;19;152855;-56
2022/06/19 02:08:12;;;;;;;;;;;;;;;23.85;47.79;101235.38;7295540;19;152076;-56
2022/06/19 02:10:40;;;;;;;;;;;;;;;23.81;47.88;101242.00;7287141;19;152945;-57
2022/06/19 02:13:09;;;;;;;;;;;;;;;23.79;47.55;101247.13;7288289;19;153962;-56
2022/06/19 02:15:36;;;;;;;;;;;;;;;23.78;47.43;101245.47;7286193;19;151589;-58
2022/06/19 02:18:11;;;;;;;;;;;;;;;23.75;47.72;101226.38;7288809;19;153520;-58
2022/06/19 02:20:38;;;;;;;;;;;;;;;23.78;47.85;101228.53;7286324;19;154052;-58
2022/06/19 02:23:07;;;;;;;;;;;;;;;23.82;47.91;101229.56;7289575;19;151854;-57
2022/06/19 02:25:37;;;;;;;;;;;;;;;23.90;47.57;101243.72;7287031;19;153654;-56
2022/06/19 02:28:05;;;;;;;;;;;;;;;23.82;47.49;101240.84;7294268;19;153959;-58
2022/06/19 02:30:32;;;;;;;;;;;;;;;23.88;47.18;101262.13;7290187;19;152693;-57
2022/06/19 02:32:59;;;;;;;;;;;;;;;23.85;47.77;101259.94;7285864;19;153833;-57
2022/06/19 02:35:26;;;;;;;;;;;;;;;23.87;47.71;101258.47;7289558;19;152019;-57
2022/06/19 02:37:56;;;;;;;;;;;;;;;23.86;47.78;101262.44;7288482;19;152823;-59
2022/06/19 02:40:26;;;;;;;;;;;;;;;23.88;47.71;101264.97;7283986;19;154283;-58
2022/06/19 02:42:53;;;;;;;;;;;;;;;23.90;47.82;101260.63;7286787;19;151809;-58
2022/06/19 02:45:22;;;;;;;;;;;;;;;24.00;47.33;101256.72;7288248;19;153507;-58
2022/06/19 02:47:50;;;;;;;;;;;;;;;23.96;47.12;101255.69;7283180;19;153490;-58
2022/06/19 02:50:19;;;;;;;;;;;;;;;23.94;47.58;101260.81;7294106;19;152103;-58
2022/06/19 02:52:47;;;;;;;;;;;;;;;23.93;47.56;101253.53;7286969;19;153266;-58
2022/06/19 02:55:14;;;;;;;;;;;;;;;23.91;47.06;101255.84;7286482;19;151753;-59
2022/06/19 02:57:41;;;;;;;;;;;;;;;23.95;47.59;101262.50;7288481;19;153074;-57
2022/06/19 03:00:12;;;;;;;;;;;;;;;23.92;47.46;101268.78;7282371;19;153934;-58
2022/06/19 03:02:39;;;;;;;;;;;;;;;23.90;47.38;101274.75;7283826;19;151937;-57
2022/06/19 03:05:15;;;;;;;;;;;;;;;23.89;47.50;101275.09;7288173;19;151676;-58
2022/06/19 03:07:42;;;;;;;;;;;;;;;23.88;47.33;101279.06;7287066;19;153696;-55
2022/06/19 03:10:09;;;;;;;;;;;;;;;23.88;47.96;101279.91;7287747;19;151531;-56
2022/06/19 03:12:36;;;;;;;;;;;;;;;23.89;47.59;101281.53;7294994;19;153651;-57
2022/06/19 03:15:04;;;;;;;;;;;;;;;23.86;47.80;101281.38;7285304;19;153606;-58
2022/06/19 03:17:31;;;;;;;;;;;;;;;23.88;47.42;101267.78;7287315;19;152846;-57
2022/06/19 03:19:58;;;;;;;;;;;;;;;23.89;47.76;101261.78;7284590;19;153465;-58
2022/06/19 03:22:25;;;;;;;;;;;;;;;23.90;47.73;101256.97;7288847;19;152846;-57
2022/06/19 03:24:52;;;;;;;;;;;;;;;23.85;47.85;101266.41;7280982;19;152551;-59
2022/06/19 03:27:20;;;;;;;;;;;;;;;23.91;47.55;101272.75;7286576;19;154568;-56
2022/06/19 03:29:47;;;;;;;;;;;;;;;23.87;47.96;101271.75;7284901;19;151871;-57
2022/06/19 03:32:14;;;;;;;;;;;;;;;23.90;47.90;101252.16;7284202;19;153957;-58
2022/06/19 03:34:42;;;;;;;;;;;;;;;23.88;47.62;101248.03;7289433;19;154284;-57
2022/06/19 03:37:09;;;;;;;;;;;;;;;23.93;47.85;101251.53;7285427;19;153461;-57
2022/06/19 03:39:38;;;;;;;;;;;;;;;23.96;47.71;101266.97;7285891;19;154473;-58
2022/06/19 03:42:05;;;;;;;;;;;;;;;23.96;47.57;101268.97;7282799;19;151906;-56
2022/06/19 03:44:33;;;;;;;;;;;;;;;23.93;47.86;101265.66;7285214;19;152799;-58
2022/06/19 03:47:00;;;;;;;;;;;;;;;23.93;47.70;101270.47;7283183;19;153692;-57
2022/06/19 03:49:27;;;;;;;;;;;;;;;23.91;47.86;101259.50;7285293;19;154178;-57
2022/06/19 03:51:54;;;;;;;;;;;;;;;23.96;47.86;101264.16;7287381;19;156165;-57
2022/06/19 03:54:21;;;;;;;;;;;;;;;23.99;47.80;101274.78;7285585;19;153297;-56
2022/06/19 03:56:48;;;;;;;;;;;;;;;24.00;47.69;101293.41;7290864;19;151763;-57
2022/06/19 03:59:15;;;;;;;;;;;;;;;23.94;47.60;101308.81;7281928;19;154288;-58
2022/06/19 04:01:42;;;;;;;;;;;;;;;23.96;47.57;101317.78;7285744;19;151738;-58
2022/06/19 04:04:10;;;;;;;;;;;;;;;23.95;47.44;101310.47;7285102;19;152774;-57
2022/06/19 04:06:39;;;;;;;;;;;;;;;23.96;47.20;101298.03;7283995;19;153190;-58
2022/06/19 04:09:07;;;;;;;;;;;;;;;23.96;47.67;101308.50;7282030;19;151969;-56
2022/06/19 04:11:35;;;;;;;;;;;;;;;23.97;47.34;101313.81;7286886;19;153906;-56
2022/06/19 04:14:02;;;;;;;;;;;;;;;23.97;47.44;101307.34;7282680;19;154331;-57
2022/06/19 04:16:31;;;;;;;;;;;;;;;23.95;47.59;101290.72;7291992;19;151827;-56
2022/06/19 04:18:59;;;;;;;;;;;;;;;23.97;47.70;101301.69;7281853;19;154088;-57
2022/06/19 04:21:28;;;;;;;;;;;;;;;23.93;47.50;101316.47;7280441;19;153061;-57
2022/06/19 04:23:56;;;;;;;;;;;;;;;23.93;47.66;101336.22;7285549;19;153286;-58
2022/06/19 04:26:25;;;;;;;;;;;;;;;23.93;47.79;101343.84;7284493;19;153919;-58
2022/06/19 04:28:52;;;;;;;;;;;;;;;23.96;47.68;101357.31;7284443;19;151712;-57
2022/06/19 04:31:19;;;;;;;;;;;;;;;23.92;47.79;101350.66;7285552;19;152572;-56
2022/06/19 04:33:46;;;;;;;;;;;;;;;23.98;47.54;101345.72;7284048;19;153937;-58
2022/06/19 04:36:15;;;;;;;;;;;;;;;23.91;47.64;101347.00;7283796;19;151776;-57
2022/06/19 04:38:43;;;;;;;;;;;;;;;23.92;47.70;101359.94;7291360;19;153006;-58
2022/06/19 04:41:13;;;;;;;;;;;;;;;23.92;47.66;101359.13;7281300;19;152101;-58
2022/06/19 04:43:40;;;;;;;;;;;;;;;23.92;47.95;101356.28;7286809;19;152712;-58
2022/06/19 04:46:08;;;;;;;;;;;;;;;23.92;47.43;101353.47;7284598;19;154016;-58
2022/06/19 04:48:35;;;;;;;;;;;;;;;23.93;47.73;101344.69;7284989;19;151498;-58
2022/06/19 04:51:03;;;;;;;;;;;;;;;23.91;47.61;101341.34;7282861;19;153574;-57
2022/06/19 04:53:32;;;;;;;;;;;;;;;23.92;47.73;101336.53;7283628;19;153562;-57
2022/06/19 04:55:59;;;;;;;;;;;;;;;23.87;47.69;101331.03;7284004;19;152741;-58
2022/06/19 04:58:27;;;;;;;;;;;;;;;23.90;47.95;101327.53;7284438;19;152728;-58
2022/06/19 05:00:54;;;;;;;;;;;;;;;23.91;47.76;101327.22;7288636;19;154180;-57
2022/06/19 05:03:22;;;;;;;;;;;;;;;23.94;48.07;101331.38;7284024;19;153137;-57
2022/06/19 05:05:51;;;;;;;;;;;;;;;23.92;48.13;101325.25;7282559;19;153906;-57
2022/06/19 05:08:18;;;;;;;;;;;;;;;23.88;47.69;101325.06;7283810;19;151933;-58
2022/06/19 05:10:45;;;;;;;;;;;;;;;23.85;48.22;101314.41;7284254;19;152782;-58
2022/06/19 05:13:15;;;;;;;;;;;;;;;23.87;48.29;101311.25;7282350;19;153905;-57
2022/06/19 05:15:42;;;;;;;;;;;;;;;23.85;48.13;101322.03;7283850;19;152399;-56
2022/06/19 05:18:10;;;;;;;;;;;;;;;23.86;48.00;101330.19;7282440;19;152886;-58
2022/06/19 05:20:37;;;;;;;;;;;;;;;23.89;48.02;101325.91;7280135;19;153515;-58
2022/06/19 05:23:05;;;;;;;;;;;;;;;23.85;47.94;101308.75;7288469;19;151808;-58
2022/06/19 05:25:32;;;;;;;;;;;;;;;23.88;48.11;101313.78;7282331;19;154224;-57
2022/06/19 05:27:59;;;;;;;;;;;;;;;23.90;47.78;101308.63;7279598;19;152681;-57
2022/06/19 05:30:26;;;;;;;;;;;;;;;23.88;47.80;101307.28;7284581;19;153211;-58
2022/06/19 05:32:53;;;;;;;;;;;;;;;23.90;48.02;101308.63;7280319;19;153497;-58
2022/06/19 05:35:20;;;;;;;;;;;;;;;23.89;48.04;101306.16;7282904;19;151528;-58
2022/06/19 05:37:47;;;;;;;;;;;;;;;23.88;48.11;101321.41;7282251;19;152242;-58
2022/06/19 05:40:14;;;;;;;;;;;;;;;23.84;48.44;101323.19;7281456;19;153666;-56
2022/06/19 05:42:41;;;;;;;;;;;;;;;23.83;48.43;101313.06;7284313;19;152086;-56
2022/06/19 05:45:08;;;;;;;;;;;;;;;23.82;48.65;101322.69;7286499;19;154219;-56
2022/06/19 05:47:35;;;;;;;;;;;;;;;23.83;48.39;101328.00;7282592;19;152427;-57
2022/06/19 05:50:02;;;;;;;;;;;;;;;23.80;48.61;101328.63;7282774;19;153631;-57
2022/06/19 05:52:29;;;;;;;;;;;;;;;23.80;48.26;101308.06;7280169;19;152992;-58
2022/06/19 05:54:56;;;;;;;;;;;;;;;23.80;48.66;101305.25;7284571;19;152147;-56
2022/06/19 05:57:23;;;;;;;;;;;;;;;23.79;48.82;101303.56;7280260;19;154736;-56
2022/06/19 05:59:50;;;;;;;;;;;;;;;23.81;48.40;101295.59;7280804;19;153957;-57
2022/06/19 06:02:21;;;;;;;;;;;;;;;23.80;48.55;101288.31;7279640;19;152005;-57
2022/06/19 06:04:49;;;;;;;;;;;;;;;23.76;48.91;101264.69;7282091;19;153805;-57
2022/06/19 06:07:16;;;;;;;;;;;;;;;23.80;48.38;101258.09;7288353;19;153425;-57
2022/06/19 06:09:44;;;;;;;;;;;;;;;23.76;48.97;101267.53;7281490;19;153228;-58
2022/06/19 06:12:11;;;;;;;;;;;;;;;23.79;48.75;101247.13;7282600;19;153427;-57
2022/06/19 06:14:38;;;;;;;;;;;;;;;23.80;48.85;101265.75;7281953;19;152095;-57
2022/06/19 06:17:05;;;;;;;;;;;;;;;23.83;48.45;101260.28;7283555;19;153090;-59
2022/06/19 06:19:33;;;;;;;;;;;;;;;23.85;48.56;101252.31;7281765;19;153340;-58
2022/06/19 06:22:01;;;;;;;;;;;;;;;23.86;48.64;101258.78;7280717;19;151690;-56
2022/06/19 06:24:29;;;;;;;;;;;;;;;23.85;48.51;101268.41;7278847;19;153879;-56
2022/06/19 06:26:57;;;;;;;;;;;;;;;23.81;48.34;101233.53;7287117;19;153439;-56
2022/06/19 06:29:25;;;;;;;;;;;;;;;23.82;48.25;101219.09;7282899;19;152918;-58
2022/06/19 06:31:53;;;;;;;;;;;;;;;23.86;48.40;101244.69;7280189;19;154149;-57
2022/06/19 06:34:20;;;;;;;;;;;;;;;23.83;48.57;101279.19;7280372;19;151858;-56
2022/06/19 06:36:47;;;;;;;;;;;;;;;23.85;48.43;101290.97;7280848;19;153035;-56
2022/06/19 06:39:14;;;;;;;;;;;;;;;23.80;48.12;101299.59;7282135;19;153499;-56
2022/06/19 06:41:41;;;;;;;;;;;;;;;23.84;48.52;101278.06;7284518;19;152017;-56
2022/06/19 06:44:11;;;;;;;;;;;;;;;23.83;48.35;101259.44;7289257;19;152749;-58
2022/06/19 06:46:38;;;;;;;;;;;;;;;23.83;48.32;101236.88;7287071;19;154538;-56
2022/06/19 06:49:06;;;;;;;;;;;;;;;23.80;48.39;101243.97;7295176;19;152103;-55
2022/06/19 06:51:33;;;;;;;;;;;;;;;23.82;48.29;101249.31;7284735;19;154086;-57
2022/06/19 06:54:00;;;;;;;;;;;;;;;23.85;48.45;101241.03;7284864;19;152269;-58
2022/06/19 06:56:30;;;;;;;;;;;;;;;23.82;48.37;101230.38;7288776;19;153944;-56
2022/06/19 06:58:57;;;;;;;;;;;;;;;23.82;48.36;101219.09;7284721;19;153517;-56
2022/06/19 07:01:29;;;;;;;;;;;;;;;23.81;48.25;101219.41;7287251;19;151778;-57
2022/06/19 07:03:56;;;;;;;;;;;;;;;23.82;48.56;101230.38;7286877;19;152658;-58
2022/06/19 07:06:25;;;;;;;;;;;;;;;23.81;48.45;101222.25;7285285;19;153843;-57
2022/06/19 07:08:52;;;;;;;;;;;;;;;23.77;48.92;101230.53;7285355;19;152070;-56
2022/06/19 07:11:21;;;;;;;;;;;;;;;23.79;49.05;101222.59;7292174;19;152756;-56
2022/06/19 07:13:49;;;;;;;;;;;;;;;23.77;48.75;101224.03;7285161;19;151945;-58
2022/06/19 07:16:16;;;;;;;;;;;;;;;23.78;48.90;101232.19;7287627;19;152954;-56
2022/06/19 07:18:44;;;;;;;;;;;;;;;23.76;48.82;101231.66;7285346;19;154676;-56
2022/06/19 07:21:11;;;;;;;;;;;;;;;23.80;48.89;101224.22;7285107;19;151877;-57
2022/06/19 07:23:39;;;;;;;;;;;;;;;23.76;46.67;101225.19;7288224;19;153626;-55
2022/06/19 07:26:09;;;;;;;;;;;;;;;23.62;41.72;101221.66;7282534;19;153442;-56
2022/06/19 07:28:37;;;;;;;;;;;;;;;23.41;40.61;101236.25;7285215;19;152126;-57
2022/06/19 07:31:04;;;;;;;;;;;;;;;23.27;40.27;101235.47;7284976;19;152883;-56
2022/06/19 07:33:31;;;;;;;;;;;;;;;23.13;39.88;101245.97;7292228;19;153830;-56
2022/06/19 07:35:58;;;;;;;;;;;;;;;22.99;40.16;101231.94;7285773;19;153481;-56
2022/06/19 07:38:25;;;;;;;;;;;;;;;22.91;39.88;101232.69;7286014;19;153412;-56
2022/06/19 07:40:52;;;;;;;;;;;;;;;22.73;39.71;101230.84;7285298;19;151623;-56
2022/06/19 07:43:19;;;;;;;;;;;;;;;22.66;39.65;101212.69;7287746;19;152599;-56
2022/06/19 07:45:46;;;;;;;;;;;;;;;22.68;40.08;101199.97;7287227;19;153756;-56
2022/06/19 07:50:43;;;;;;;;;;;;;;;22.48;39.70;101192.00;7284404;19;153220;-56
2022/06/19 07:53:10;;;;;;;;;;;;;;;22.45;39.45;101187.81;7283109;19;153925;-55
2022/06/19 07:55:39;;;;;;;;;;;;;;;22.39;39.52;101169.38;7289903;19;152102;-57
2022/06/19 07:58:07;;;;;;;;;;;;;;;22.25;39.54;101148.03;7282778;19;153793;-57
2022/06/19 08:00:36;;;;;;;;;;;;;;;22.27;39.55;101132.47;7280920;19;152357;-56
2022/06/19 08:03:03;;;;;;;;;;;;;;;22.16;39.54;101117.81;7283046;19;153131;-58
2022/06/19 08:05:31;;;;;;;;;;;;;;;22.13;39.77;101109.97;7281833;19;153284;-56
2022/06/19 08:08:00;;;;;;;;;;;;;;;22.08;39.96;101098.00;7283773;19;152433;-56
2022/06/19 08:10:27;;;;;;;;;;;;;;;22.12;39.95;101110.31;7279954;19;153436;-56
2022/06/19 08:12:54;;;;;;;;;;;;;;;22.07;39.80;101096.34;7282026;19;154097;-56
2022/06/19 08:15:22;;;;;;;;;;;;;;;22.00;39.84;101093.94;7281088;19;151758;-56
2022/06/19 08:17:49;;;;;;;;;;;;;;;21.98;40.51;101089.81;7287759;19;153322;-56
2022/06/19 08:20:18;;;;;;;;;;;;;;;21.99;40.18;101103.53;7279811;19;152643;-56
2022/06/19 08:22:45;;;;;;;;;;;;;;;21.93;40.26;101113.25;7281434;19;153457;-56
2022/06/19 08:25:13;;;;;;;;;;;;;;;21.94;40.04;101114.09;7280769;19;154372;-57
2022/06/19 08:27:42;;;;;;;;;;;;;;;21.89;40.25;101115.00;7281852;19;152147;-55
2022/06/19 08:30:11;;;;;;;;;;;;;;;21.81;40.33;101112.06;7282756;19;153714;-57
2022/06/19 08:32:38;;;;;;;;;;;;;;;21.91;40.53;101132.38;7278521;19;153851;-55
2022/06/19 08:35:05;;;;;;;;;;;;;;;21.87;40.78;101111.66;7282848;19;151761;-58
2022/06/19 08:37:32;;;;;;;;;;;;;;;22.01;44.07;101109.69;7289630;19;151880;-58
2022/06/19 08:40:01;;;;;;;;;;;;;;;22.05;42.34;101099.47;7280394;19;153789;-57
2022/06/19 08:42:36;;;;;;;;;;;;;;;22.10;42.97;101087.28;7277777;19;154774;-57
2022/06/19 08:45:16;;;;;;;;;;;;;;;22.16;43.49;101094.47;7278423;19;153350;-58
2022/06/19 08:48:04;;;;;;;;;;;;;;;22.24;42.74;101087.25;7281779;19;152039;-56
2022/06/19 08:50:31;;;;;;;;;;;;;;;22.30;43.07;101088.78;7282943;19;153925;-56
2022/06/19 08:53:05;;;;;;;;;;;;;;;22.33;43.02;101094.63;7280506;19;153624;-57
2022/06/19 08:55:33;;;;;;;;;;;;;;;22.39;43.04;101099.00;7279529;19;152251;-58
2022/06/19 08:58:00;;;;;;;;;;;;;;;22.43;43.51;101102.00;7283141;19;153475;-56
2022/06/19 09:00:27;;;;;;;;;;;;;;;22.46;43.38;101092.91;7284773;19;156696;-55
2022/06/19 09:02:57;;;;;;;;;;;;;;;22.44;43.51;101096.03;7278248;19;153314;-56
2022/06/19 09:05:39;;;;;;;;;;;;;;;22.44;43.60;101112.91;7281228;19;154555;-56
2022/06/19 09:08:06;;;;;;;;;;;;;;;22.45;43.87;101128.66;7279945;19;152175;-55
2022/06/19 09:10:44;;;;;;;;;;;;;;;22.47;43.60;101132.03;7282549;19;153404;-56
2022/06/19 09:13:21;;;;;;;;;;;;;;;22.49;44.07;101149.41;7278683;19;153278;-59
2022/06/19 09:15:55;;;;;;;;;;;;;;;22.51;43.90;101144.31;7279648;19;151806;-57
2022/06/19 09:18:33;;;;;;;;;;;;;;;22.51;44.20;101137.84;7277751;19;152847;-58
2022/06/19 09:21:09;;;;;;;;;;;;;;;22.57;43.86;101156.28;7280929;19;154196;-59
2022/06/19 09:23:48;;;;;;;;;;;;;;;22.62;43.75;101162.63;7285489;19;152768;-58
2022/06/19 09:26:15;;;;;;;;;;;;;;;22.66;44.16;101182.56;7279878;19;154598;-56
2022/06/19 09:28:45;;;;;;;;;;;;;;;22.68;44.10;101204.75;7275068;19;153252;-54
2022/06/19 09:31:22;;;;;;;;;;;;;;;22.74;43.79;101240.97;7279854;19;153460;-55
2022/06/19 09:33:55;;;;;;;;;;;;;;;22.77;43.91;101260.06;7280961;19;153735;-57
2022/06/19 09:36:33;;;;;;;;;;;;;;;22.81;43.88;101282.78;7279708;19;152302;-55
2022/06/19 09:39:06;;;;;;;;;;;;;;;22.86;44.08;101299.59;7281098;19;152594;-56
2022/06/19 09:41:46;;;;;;;;;;;;;;;22.89;44.09;101302.63;7276016;19;153912;-56
2022/06/19 09:44:29;;;;;;;;;;;;;;;22.88;44.14;101323.50;7280761;19;152596;-57
2022/06/19 09:47:02;;;;;;;;;;;;;;;22.93;43.97;101345.09;7286379;19;153378;-58
2022/06/19 09:49:33;;;;;;;;;;;;;;;22.92;44.21;101344.25;7279846;19;151867;-56
2022/06/19 09:52:05;;;;;;;;;;;;;;;22.96;43.80;101347.28;7277235;19;153794;-57
2022/06/19 09:54:35;;;;;;;;;;;;;;;22.98;43.88;101339.34;7275426;19;153225;-57
2022/06/19 09:57:06;;;;;;;;;;;;;;;22.97;44.11;101349.78;7259601;19;157677;-56
2022/06/19 09:59:44;;;;;;;;;;;;;;;22.95;44.07;101354.91;7264602;19;153047;-56
2022/06/19 10:02:18;;;;;;;;;;;;;;;22.98;44.05;101357.09;7272936;19;154053;-56
2022/06/19 10:04:50;;;;;;;;;;;;;;;22.96;44.22;101348.13;7268890;19;151797;-56
2022/06/19 10:07:38;;;;;;;;;;;;;;;22.99;44.38;101364.38;7277347;19;152086;-56
2022/06/19 10:10:32;;;;;;;;;;;;;;;22.99;43.96;101363.53;7284483;19;153343;-57
2022/06/19 10:13:30;;;;;;;;;;;;;;;23.02;44.35;101380.69;7278493;19;152748;-55
2022/06/19 10:16:00;;;;;;;;;;;;;;;23.01;44.25;101373.38;7282139;19;153897;-57
2022/06/19 10:18:37;;;;;;;;;;;;;;;23.03;44.21;101370.25;7284414;19;152018;-57
2022/06/19 10:21:09;;;;;;;;;;;;;;;23.04;43.99;101364.28;7283593;19;152792;-55
2022/06/19 10:23:50;;;;;;;;;;;;;;;23.03;44.09;101353.34;7280518;19;152731;-57
2022/06/19 10:26:23;;;;;;;;;;;;;;;22.97;44.26;101349.78;7284075;19;151848;-54
2022/06/19 10:29:06;;;;;;;;;;;;;;;22.92;44.61;101340.59;7285944;19;153162;-53
2022/06/19 10:32:09;;;;;;;;;;;;;;;22.89;44.36;101338.44;7285165;19;153572;-54
2022/06/19 10:35:20;;;;;;;;;;;;;;;22.88;44.56;101343.22;7292329;19;151960;-55
2022/06/19 10:37:51;;;;;;;;;;;;;;;22.88;44.75;101336.75;7284629;19;153484;-55
2022/06/19 10:40:24;;;;;;;;;;;;;;;22.88;44.79;101331.13;7284263;19;151966;-54
2022/06/19 10:43:10;;;;;;;;;;;;;;;22.88;44.89;101323.50;7282428;19;152822;-54
2022/06/19 10:45:44;;;;;;;;;;;;;;;22.88;44.94;101317.03;7283965;19;153863;-57
2022/06/19 10:48:19;;;;;;;;;;;;;;;22.88;44.93;101312.22;7284706;19;152382;-56
2022/06/19 10:51:04;;;;;;;;;;;;;;;22.91;44.67;101333.28;7286204;19;153407;-57
2022/06/19 10:53:50;;;;;;;;;;;;;;;22.90;44.59;101326.00;7284927;19;154888;-56
2022/06/19 10:56:19;;;;;;;;;;;;;;;22.90;44.69;101326.00;7291760;19;151863;-58
2022/06/19 10:58:46;;;;;;;;;;;;;;;22.90;45.02;101309.91;7283401;19;153476;-57
2022/06/19 11:04:06;;;;;;;;;;;;;;;22.93;44.88;101302.84;7285347;19;152120;-57
2022/06/19 11:04:11;;;;;;;;;;;;;;;22.93;45.11;101286.75;7283497;19;153848;-55
2022/06/19 11:06:38;;;;;;;;;;;;;;;22.95;44.72;101269.50;7284290;19;151981;-55
2022/06/19 11:09:09;;;;;;;;;;;;;;;22.97;44.73;101264.41;7283957;19;152050;-57
2022/06/19 11:11:37;;;;;;;;;;;;;;;23.01;43.51;101256.97;7284769;19;153724;-55
2022/06/19 11:14:10;;;;;;;;;;;;;;;23.01;43.72;101255.00;7283790;19;153873;-58
2022/06/19 11:16:40;;;;;;;;;;;;;;;23.00;43.69;101255.31;7284334;19;151968;-55
2022/06/19 11:19:07;;;;;;;;;;;;;;;23.02;43.97;101253.03;7294289;19;152842;-57
2022/06/19 11:21:34;;;;;;;;;;;;;;;23.02;44.49;101253.03;7286519;19;151935;-57
2022/06/19 11:24:03;;;;;;;;;;;;;;;23.04;44.30;101262.81;7283088;19;153419;-57
2022/06/19 11:26:35;;;;;;;;;;;;;;;23.05;44.04;101280.56;7285114;19;153462;-57
2022/06/19 11:29:12;;;;;;;;;;;;;;;23.07;44.30;101291.53;7284751;19;151738;-55
2022/06/19 11:31:42;;;;;;;;;;;;;;;23.07;44.39;101285.88;7285701;19;152806;-58
2022/06/19 11:36:55;;;;;;;;;;;;;;;23.09;44.22;101294.84;7286521;19;152043;-57
2022/06/19 11:39:31;;;;;;;;;;;;;;;23.09;44.20;101290.03;7285777;19;153433;-56
2022/06/19 11:41:58;;;;;;;;;;;;;;;23.10;44.52;101285.25;7293207;19;154536;-57
2022/06/19 11:44:25;;;;;;;;;;;;;;;23.09;44.44;101275.13;7284119;19;152750;-57
2022/06/19 11:46:54;;;;;;;;;;;;;;;23.09;44.64;101258.19;7282228;19;157141;-59
2022/06/19 11:49:25;;;;;;;;;;;;;;;23.09;44.28;101249.75;7284421;19;151785;-58
2022/06/19 11:52:02;;;;;;;;;;;;;;;23.08;44.38;101222.72;7285291;19;153039;-57
2022/06/19 11:54:31;;;;;;;;;;;;;;;23.08;44.17;101212.25;7286503;19;153449;-58
2022/06/19 11:56:59;;;;;;;;;;;;;;;23.07;44.44;101210.63;7282932;19;152590;-57
2022/06/19 11:59:27;;;;;;;;;;;;;;;23.07;44.35;101204.16;7282985;19;155420;-59
2022/06/19 12:01:54;;;;;;;;;;;;;;;23.06;44.37;101197.69;7283414;19;154999;-56
2022/06/19 12:04:22;;;;;;;;;;;;;;;23.06;44.36;101194.84;7291994;19;152136;-55
2022/06/19 12:06:52;;;;;;;;;;;;;;;23.07;44.74;101196.53;7284747;19;153291;-56
2022/06/19 12:09:22;;;;;;;;;;;;;;;23.05;44.23;101185.56;7282386;19;152191;-54
2022/06/19 12:11:59;;;;;;;;;;;;;;;23.04;44.41;101181.06;7285009;19;153553;-56
2022/06/19 12:14:34;;;;;;;;;;;;;;;23.05;44.74;101198.81;7282460;19;154013;-59
2022/06/19 12:17:11;;;;;;;;;;;;;;;23.04;44.51;101209.25;7286681;19;152638;-55
2022/06/19 12:19:46;;;;;;;;;;;;;;;23.04;44.66;101219.69;7281427;19;152312;-56
2022/06/19 12:22:14;;;;;;;;;;;;;;;23.04;44.32;101237.44;7282894;19;153913;-59
2022/06/19 12:24:54;;;;;;;;;;;;;;;23.07;44.27;101254.88;7284327;19;152041;-56
2022/06/19 12:27:23;;;;;;;;;;;;;;;23.08;44.33;101262.19;7288225;19;153832;-57
2022/06/19 12:29:55;;;;;;;;;;;;;;;23.08;44.42;101279.09;7282121;19;155924;-56
2022/06/19 12:32:24;;;;;;;;;;;;;;;23.07;44.75;101269.81;7285991;19;153156;-56
2022/06/19 12:34:55;;;;;;;;;;;;;;;23.08;44.65;101268.63;7281542;19;154126;-57
2022/06/19 12:37:23;;;;;;;;;;;;;;;23.09;44.88;101272.28;7285419;19;151859;-56
2022/06/19 12:39:51;;;;;;;;;;;;;;;23.10;44.84;101268.34;7282347;19;153744;-54
2022/06/19 12:42:21;;;;;;;;;;;;;;;23.10;44.78;101263.53;7281823;19;152873;-59
2022/06/19 12:44:55;;;;;;;;;;;;;;;23.12;44.64;101261.25;7282433;19;151759;-57
2022/06/19 12:47:27;;;;;;;;;;;;;;;23.12;44.73;101249.13;7284124;19;153558;-55
2022/06/19 12:50:17;;;;;;;;;;;;;;;23.10;44.54;101246.63;7288331;19;152396;-55